• Join FlightAware (Why Join?)
  • Login
  • US Flag 
08:05AM EST


 

Airport Tracker/Info


-or-


 

Live Flight TrackerFlight Track Log ✈ N762NC ✈ 13-Aug-2013 ✈ KATL - KCLE

Flight Track Log - Related Links

Times and Time Zones

All times are in EDT time to prevent confusion due to time zone crossing. See the N762NC flight status page for this flight to view local times or setup timezone preferences in your user account.

Time Position Orientation Groundspeed Altitude Reporting Facility
EDT Latitude Longitude Course Direction KTS MPH feet Rate Location/Type
09:26AM 33.6536 -84.4856 12° North 449 517 3,200  Level Atlanta Center
09:27AM 33.6761 -84.5706 288° West 361 415 5,800 2,880 Climbing Atlanta Center
09:28AM 33.7167 -84.6333 308° West 287 330 9,000 2,220 Climbing Atlanta TRACON
09:29AM 34.1179 -84.3117 North  Level FlightAware Approximate
09:29AM 33.8000 -84.6000 18° North 347 399 10,000  Level Atlanta TRACON
09:30AM 34.2395 -84.2898 12° North  Level FlightAware Approximate
09:30AM 33.8767 -84.5567 25° Northeast 372 428 11,400  Level Atlanta Center
09:31AM 34.3599 -84.2587 12° North  Level FlightAware Approximate
09:31AM 33.9750 -84.4822 32° Northeast 372 428 14,100  Level Atlanta Center
09:32AM 34.4803 -84.2275 12° North  Level FlightAware Approximate
09:32AM 34.0608 -84.4150 33° Northeast 372 428 15,100  Level Atlanta Center
09:33AM 34.1656 -84.3325 33° Northeast 420 483 17,000 1,980 Climbing Atlanta Center
09:34AM 34.2742 -84.2600 29° Northeast 420 483 19,100 2,040 Climbing Atlanta Center
09:35AM 34.3806 -84.2225 16° North 401 461 21,100 1,320 Climbing Atlanta Center
09:36AM 34.4789 -84.1522 30° Northeast 389 448 21,800 660 Climbing Atlanta Center
09:37AM 34.5728 -84.0539 41° Northeast 422 486 22,500 840 Climbing Atlanta Center
09:38AM 34.6686 -83.9631 38° Northeast 453 521 23,500 1,080 Climbing Atlanta Center
09:39AM 34.7708 -83.8567 41° Northeast 458 527 24,700 1,260 Climbing Atlanta Center
09:40AM 34.8833 -83.7881 27° Northeast 460 529 26,100 1,260 Climbing Atlanta Center
09:41AM 35.0003 -83.7853 North 416 479 27,300 1,080 Climbing Atlanta Center
09:42AM 35.1192 -83.8078 351° North 416 479 28,300 780 Climbing Atlanta Center
09:43AM 35.2425 -83.8253 353° North 428 493 28,900 300 Climbing Atlanta Center
09:44AM 35.3697 -83.8119 North 440 506 29,000 900 Climbing Atlanta Center
09:45AM 35.4928 -83.8322 352° North 445 512 30,700 1,620 Climbing Atlanta Center
09:46AM 35.6117 -83.8394 357° North 435 501 32,300 1,200 Climbing Atlanta Center
09:47AM 35.7286 -83.8444 358° North 424 488 33,200 720 Climbing Atlanta Center
09:48AM 35.8453 -83.8594 354° North 424 488 33,800 540 Climbing Atlanta Center
09:49AM 35.9600 -83.8539 North 419 482 34,300 300 Climbing Atlanta Center
09:52AM 36.2169 -83.6511 32° Northeast 465 535 35,000 180 Climbing Indianapolis Center
09:53AM 36.3236 -83.5592 35° Northeast 466 536 35,000  Level Indianapolis Center
09:54AM 36.4331 -83.5022 23° Northeast 455 524 35,000  Level Indianapolis Center
09:55AM 36.5500 -83.4414 23° Northeast 458 527 35,000  Level Indianapolis Center
09:56AM 36.6864 -83.3614 25° Northeast 459 528 35,000  Level Indianapolis Center
09:57AM 36.8039 -83.3039 21° North 450 518 35,000  Level Indianapolis Center
09:58AM 36.9167 -83.2167 32° Northeast 468 539 35,000  Level Indianapolis Center
09:59AM 37.0300 -83.1278 32° Northeast 474 545 35,000 -240 Level Indianapolis Center
10:00AM 37.1442 -83.0389 32° Northeast 474 545 34,600 -660 Descending Indianapolis Center
10:01AM 37.2675 -82.9739 23° Northeast 478 550 33,700 -780 Descending Indianapolis Center
10:02AM 37.3958 -82.9350 14° North 476 548 33,100 -360 Descending Indianapolis Center
10:03AM 37.5403 -82.8789 17° North 470 541 33,000 -60 Descending Indianapolis Center
10:04AM 37.6644 -82.8228 20° North 473 544 33,000  Level Indianapolis Center
10:05AM 37.7897 -82.7769 16° North 467 537 33,000 -120 Level Indianapolis Center
10:06AM 37.9144 -82.7389 14° North 460 529 32,800 -600 Descending Indianapolis Center
10:07AM 38.0400 -82.7153 North 454 522 31,800 -1,320 Descending Indianapolis Center
10:08AM 38.1669 -82.6936 North 457 526 30,100 -2,040 Descending Indianapolis Center
10:09AM 38.3139 -82.6856 North 452 520 27,700 -1,500 Descending Indianapolis Center
10:10AM 38.4453 -82.6750 North 469 540 27,100 -360 Descending Indianapolis Center
10:11AM 38.5781 -82.6611 North 474 545 27,000 -120 Descending Indianapolis Center
10:12AM 38.7206 -82.6625 360° North 476 548 26,900  Descending Indianapolis Center
10:13AM 38.8564 -82.6597 North 483 556 27,000  Climbing Indianapolis Center
10:14AM 38.9944 -82.6456 North 491 565 27,000  Level Indianapolis Center
10:16AM 39.1303 -82.6339 North 489 563 27,000  Level Indianapolis Center
10:17AM 39.2681 -82.6278 North 493 567 27,000 -60 Level Indianapolis Center
10:18AM 39.4019 -82.5736 17° North 507 583 26,900 -300 Descending Indianapolis Center
10:19AM 39.5381 -82.5203 17° North 509 586 26,400 -660 Descending Indianapolis Center
10:20AM 39.6981 -82.4486 19° North 505 581 25,600 -720 Descending Indianapolis Center
10:21AM 39.8292 -82.3844 21° North 501 577 25,000 -660 Descending Indianapolis Center
10:22AM 39.9600 -82.3292 18° North 490 564 24,300 -780 Descending Indianapolis Center
10:23AM 40.0981 -82.2528 23° Northeast 490 564 23,500 -960 Descending Indianapolis Center
10:24AM 40.2225 -82.1914 21° North 477 549 22,400 -1,200 Descending Indianapolis Center
10:25AM 40.3508 -82.1647 North 463 533 21,100 -1,320 Descending Indianapolis Center
10:26AM 40.4772 -82.1278 13° North 460 529 19,800 -1,980 Descending Indianapolis Center
10:27AM 40.5661 -82.0092 45° Northeast 452 520 17,100 -2,820 Descending Indianapolis Center
10:28AM 40.6639 -81.9131 37° Northeast 440 506 14,000 -3,000 Descending Indianapolis Center
10:29AM 40.7461 -81.8328 36° Northeast 405 466 11,500 -1,980 Descending Cleveland Center
10:30AM 40.8578 -81.7250 36° Northeast 390 449 10,000 -720 Descending Cleveland Center
10:31AM 40.9458 -81.6717 25° Northeast 390 449 10,100  Climbing Cleveland Center
10:32AM 41.0261 -81.7639 319° Northwest 299 344 10,000 -120 Descending Cleveland Center
10:33AM 41.0817 -81.8531 310° West 305 351 9,900 -960 Descending Cleveland Center
10:34AM 41.1372 -81.9119 321° Northwest 255 293 8,200 -1,860 Descending Cleveland Center
10:35AM 41.1969 -81.9711 323° Northwest 271 312 6,300 -1,860 Descending Cleveland Center
10:36AM 41.2653 -82.0142 335° Northwest 262 302 4,500 -1,440 Descending Cleveland Center
10:37AM 41.3194 -82.0042 North 231 266 3,500 -1,200 Descending Cleveland Center
10:38AM 41.3536 -81.9386 55° Northeast 198 228 2,100 -1,140 Descending Cleveland Center
10:39AM 41.3856 -81.8894 49° Northeast 132 152 1,200 -840 Descending Cleveland Center